createdAt,value
2024-02-05T00:01:41.660Z,80.54
2024-02-05T00:04:31.708Z,80.64
2024-02-05T00:07:21.538Z,80.58
2024-02-05T00:10:11.757Z,80.84
2024-02-05T00:13:01.467Z,80.64
2024-02-05T00:15:52.458Z,80.81
2024-02-05T00:18:42.619Z,81.24
2024-02-05T00:21:32.506Z,80.92
2024-02-05T00:24:21.835Z,81.38
2024-02-05T00:27:11.219Z,81.27
2024-02-05T00:30:00.672Z,81.63
2024-02-05T00:32:51.733Z,82.21
2024-02-05T00:35:41.033Z,81.59
2024-02-05T00:38:30.609Z,81.59
2024-02-05T00:41:19.870Z,81.74
2024-02-05T00:44:09.161Z,82.16
2024-02-05T00:46:58.521Z,82.01
2024-02-05T00:49:49.447Z,82.47
2024-02-05T00:52:39.094Z,82.13
2024-02-05T00:55:29.019Z,81.53
2024-02-05T00:58:18.685Z,81.59
2024-02-05T01:01:08.460Z,80.98
2024-02-05T01:03:58.143Z,80.81
2024-02-05T01:06:49.057Z,80.52
2024-02-05T01:09:38.837Z,80.78
2024-02-05T01:12:29.208Z,81.29
2024-02-05T01:15:18.580Z,80.92
2024-02-05T01:18:08.207Z,80.59
2024-02-05T01:21:00.455Z,80.79
2024-02-05T01:23:51.198Z,81.37
2024-02-05T01:26:40.897Z,80.59
2024-02-05T01:29:30.525Z,80.56
2024-02-05T01:32:19.904Z,80.31
2024-02-05T01:35:10.409Z,80.24
2024-02-05T01:37:59.790Z,80.17
2024-02-05T01:40:50.630Z,80.55
2024-02-05T01:43:40.055Z,80.79
2024-02-05T01:46:33.951Z,80.76
2024-02-05T01:49:25.002Z,81.21
2024-02-05T01:52:21.030Z,81.18
2024-02-05T01:55:13.754Z,81.09
2024-02-05T01:58:05.039Z,80.87
2024-02-05T02:00:57.019Z,81.45
2024-02-05T02:03:49.170Z,81.56
2024-02-05T02:06:40.190Z,81.77
2024-02-05T02:09:29.579Z,81.07
2024-02-05T02:12:19.189Z,81.43
2024-02-05T02:15:10.993Z,81.08
2024-02-05T02:18:04.647Z,81.57
2024-02-05T02:20:55.100Z,82.08
2024-02-05T02:23:46.519Z,81.72
2024-02-05T02:26:36.844Z,81.81
2024-02-05T02:29:26.309Z,81.81
2024-02-05T02:32:28.685Z,81.89
2024-02-05T02:35:30.785Z,81.21
2024-02-05T02:38:24.676Z,82.07
2024-02-05T02:41:21.506Z,82.45
2024-02-05T02:44:11.231Z,82.35
2024-02-05T02:47:05.201Z,82.44
2024-02-05T02:49:56.006Z,82.32
2024-02-05T02:52:45.413Z,82.01
2024-02-05T02:55:34.982Z,82.14
2024-02-05T02:58:25.787Z,81.99
2024-02-05T03:01:15.740Z,82.40
2024-02-05T03:04:05.411Z,82.16
2024-02-05T03:06:54.973Z,81.93
2024-02-05T03:09:44.381Z,81.57
2024-02-05T03:12:33.791Z,81.60
2024-02-05T03:15:24.426Z,81.68
2024-02-05T03:18:14.642Z,82.51
2024-02-05T03:21:04.150Z,82.31
2024-02-05T03:23:53.568Z,82.68
2024-02-05T03:26:42.833Z,82.42
2024-02-05T03:29:32.540Z,82.42
2024-02-05T03:32:23.169Z,81.49
2024-02-05T03:35:13.937Z,81.80
2024-02-05T03:38:03.316Z,81.85
2024-02-05T03:40:52.596Z,82.23
2024-02-05T03:43:43.284Z,81.50
2024-02-05T03:46:32.601Z,82.04
2024-02-05T03:49:23.406Z,82.13
2024-02-05T03:52:12.924Z,82.15
2024-02-05T03:55:02.375Z,81.78
2024-02-05T03:58:01.203Z,81.30
2024-02-05T04:00:51.273Z,81.94
2024-02-05T04:03:41.165Z,81.48
2024-02-05T04:06:32.105Z,80.97
2024-02-05T04:09:21.561Z,80.37
2024-02-05T04:12:10.970Z,79.80
2024-02-05T04:15:00.294Z,79.60
2024-02-05T04:17:49.654Z,79.64
2024-02-05T04:20:39.047Z,80.63
2024-02-05T04:23:29.869Z,81.22
2024-02-05T04:26:19.561Z,81.08
2024-02-05T04:29:15.840Z,80.85
2024-02-05T04:32:06.088Z,80.80
2024-02-05T04:34:55.588Z,80.58
2024-02-05T04:37:45.414Z,80.24
2024-02-05T04:40:36.195Z,79.34
2024-02-05T04:43:25.521Z,79.93
2024-02-05T04:46:14.947Z,80.31
2024-02-05T04:49:04.571Z,80.13
2024-02-05T04:51:53.995Z,80.06
2024-02-05T04:54:43.571Z,80.00
2024-02-05T04:57:34.396Z,79.79
2024-02-05T05:00:24.147Z,80.11
2024-02-05T05:03:13.506Z,80.04
2024-02-05T05:06:02.889Z,80.00
2024-02-05T05:08:52.249Z,79.98
2024-02-05T05:11:41.558Z,79.99
2024-02-05T05:14:32.229Z,80.34
2024-02-05T05:17:21.663Z,80.07
2024-02-05T05:20:13.206Z,79.69
2024-02-05T05:23:02.544Z,80.22
2024-02-05T05:25:58.747Z,79.67
2024-02-05T05:28:49.055Z,80.02
2024-02-05T05:31:39.856Z,80.11
2024-02-05T05:34:29.227Z,80.29
2024-02-05T05:37:18.794Z,80.26
2024-02-05T05:40:11.252Z,80.04
2024-02-05T05:43:00.941Z,80.23
2024-02-05T05:45:50.328Z,80.59
2024-02-05T05:48:41.357Z,80.80
2024-02-05T05:51:30.743Z,81.25
2024-02-05T05:54:21.181Z,81.27
2024-02-05T05:57:10.455Z,81.35
2024-02-05T06:00:00.534Z,80.88
2024-02-05T06:02:50.664Z,80.28
2024-02-05T06:05:41.390Z,80.76
2024-02-05T06:08:30.675Z,81.06
2024-02-05T06:11:19.962Z,81.02
2024-02-05T06:14:09.354Z,81.89
2024-02-05T06:16:58.730Z,81.60
2024-02-05T06:19:48.186Z,81.54
2024-02-05T06:22:39.077Z,81.56
2024-02-05T06:25:28.538Z,81.32
2024-02-05T06:28:18.657Z,82.02
2024-02-05T06:31:08.191Z,82.40
2024-02-05T06:33:57.772Z,82.53
2024-02-05T06:36:47.298Z,82.58
2024-02-05T06:39:38.267Z,82.59
2024-02-05T06:42:27.531Z,83.50
2024-02-05T06:45:17.927Z,83.26
2024-02-05T06:48:08.630Z,83.73
2024-02-05T06:50:58.031Z,83.79
2024-02-05T06:53:47.492Z,83.60
2024-02-05T06:56:38.290Z,84.67
2024-02-05T06:59:27.546Z,84.07
2024-02-05T07:02:20.092Z,84.36
2024-02-05T07:05:11.921Z,84.99
2024-02-05T07:08:01.364Z,85.13
2024-02-05T07:10:50.676Z,85.03
2024-02-05T07:13:41.506Z,85.15
2024-02-05T07:16:30.941Z,84.54
2024-02-05T07:19:20.508Z,85.32
2024-02-05T07:22:10.780Z,85.58
2024-02-05T07:25:00.834Z,84.97
2024-02-05T07:27:50.424Z,84.90
2024-02-05T07:30:41.629Z,85.33
2024-02-05T07:33:31.103Z,85.37
2024-02-05T07:36:20.969Z,85.57
2024-02-05T07:39:11.412Z,85.71
2024-02-05T07:42:00.867Z,86.44
2024-02-05T07:44:50.171Z,86.53
2024-02-05T07:47:41.012Z,86.91
2024-02-05T07:50:30.291Z,87.28
2024-02-05T07:53:19.770Z,87.29
2024-02-05T07:56:11.823Z,88.10
2024-02-05T07:59:01.204Z,88.27
2024-02-05T08:01:50.727Z,88.44
2024-02-05T08:04:42.415Z,88.00
2024-02-05T08:07:31.900Z,88.70
2024-02-05T08:10:21.458Z,89.59
2024-02-05T08:13:10.793Z,89.92
2024-02-05T08:16:00.189Z,89.83
2024-02-05T08:18:50.790Z,89.35
2024-02-05T08:21:41.668Z,88.66
2024-02-05T08:24:31.032Z,88.62
2024-02-05T08:27:20.337Z,88.49
2024-02-05T08:30:11.004Z,89.42
2024-02-05T08:33:00.807Z,89.12
2024-02-05T08:35:50.571Z,89.05
2024-02-05T08:38:42.668Z,88.33
2024-02-05T08:41:32.042Z,87.98
2024-02-05T08:44:23.575Z,87.13
2024-02-05T08:47:14.399Z,87.58
2024-02-05T08:50:04.064Z,87.05
2024-02-05T08:52:53.635Z,86.46
2024-02-05T08:55:44.381Z,86.09
2024-02-05T08:58:33.795Z,85.64
2024-02-05T09:01:23.370Z,85.34
2024-02-05T09:04:12.920Z,85.30
2024-02-05T09:07:02.440Z,84.59
2024-02-05T09:09:51.853Z,83.80
2024-02-05T09:12:42.842Z,83.62
2024-02-05T09:15:32.164Z,82.15
2024-02-05T09:18:23.629Z,82.37
2024-02-05T09:21:13.164Z,81.75
2024-02-05T09:24:02.513Z,80.99
2024-02-05T09:26:52.292Z,81.06
2024-02-05T09:29:44.993Z,80.91
2024-02-05T09:32:34.593Z,81.20
2024-02-05T09:35:24.024Z,80.48
2024-02-05T09:38:13.909Z,80.11
2024-02-05T09:41:08.050Z,79.31
2024-02-05T09:43:58.184Z,79.45
2024-02-05T09:46:51.840Z,79.03
2024-02-05T09:49:41.883Z,78.57
2024-02-05T09:52:32.196Z,78.02
2024-02-05T09:55:23.074Z,77.93
2024-02-05T09:58:13.213Z,78.01
2024-02-05T10:01:03.998Z,78.30
2024-02-05T10:03:55.928Z,79.38
2024-02-05T10:06:51.279Z,80.18
2024-02-05T10:09:42.239Z,79.67
2024-02-05T10:12:36.217Z,80.68
2024-02-05T10:15:25.654Z,80.96
2024-02-05T10:18:15.099Z,82.15
2024-02-05T10:21:06.663Z,82.30
2024-02-05T10:23:56.389Z,82.81
2024-02-05T10:26:45.763Z,83.28
2024-02-05T10:29:35.086Z,84.37
2024-02-05T10:32:24.650Z,84.52
2024-02-05T10:35:19.015Z,85.61
2024-02-05T10:38:13.631Z,84.76
2024-02-05T10:41:03.669Z,84.97
2024-02-05T10:43:53.005Z,84.88
2024-02-05T10:46:42.523Z,84.06
2024-02-05T10:49:32.800Z,82.47
2024-02-05T10:52:23.828Z,81.66
2024-02-05T10:55:15.840Z,81.05
2024-02-05T10:58:06.691Z,80.30
2024-02-05T11:01:01.506Z,80.05
2024-02-05T11:03:56.550Z,79.28
2024-02-05T11:06:50.318Z,79.36
2024-02-05T11:09:41.089Z,79.39
2024-02-05T11:12:34.075Z,79.34
2024-02-05T11:15:23.825Z,79.02
2024-02-05T11:18:17.340Z,78.77
2024-02-05T11:21:09.251Z,78.17
2024-02-05T11:23:59.666Z,77.75
2024-02-05T11:26:49.074Z,77.63
2024-02-05T11:29:45.214Z,77.14
2024-02-05T11:32:36.571Z,77.00
2024-02-05T11:35:31.241Z,76.44
2024-02-05T11:38:23.132Z,76.74
2024-02-05T11:41:12.832Z,77.72
2024-02-05T11:44:07.098Z,76.83
2024-02-05T11:46:57.778Z,77.11
2024-02-05T11:49:47.388Z,76.95
2024-02-05T11:52:40.384Z,77.30
2024-02-05T11:55:30.154Z,77.89
2024-02-05T11:58:19.622Z,77.91
2024-02-05T12:01:11.060Z,77.75
2024-02-05T12:04:02.263Z,78.51
2024-02-05T12:06:52.341Z,78.38
2024-02-05T12:09:41.738Z,78.47
2024-02-05T12:12:31.947Z,78.69
2024-02-05T12:15:23.499Z,78.92
2024-02-05T12:18:12.939Z,79.32
2024-02-05T12:21:04.471Z,79.65
2024-02-05T12:23:54.898Z,79.30
2024-02-05T12:26:44.290Z,78.78
2024-02-05T12:29:34.082Z,78.18
2024-02-05T12:32:27.905Z,78.19
2024-02-05T12:35:22.619Z,77.98
2024-02-05T12:38:13.823Z,77.83
2024-02-05T12:41:03.935Z,78.05
2024-02-05T12:43:53.748Z,78.65
2024-02-05T12:46:43.344Z,78.35
2024-02-05T12:49:33.207Z,78.59
2024-02-05T12:52:23.936Z,78.34
2024-02-05T12:55:15.064Z,78.44
2024-02-05T12:58:04.475Z,76.86
2024-02-05T13:00:54.147Z,75.77
2024-02-05T13:03:43.684Z,75.33
2024-02-05T13:06:33.252Z,74.64
2024-02-05T13:09:22.580Z,73.74
2024-02-05T13:12:14.134Z,73.25
2024-02-05T13:15:04.229Z,72.87
2024-02-05T13:17:54.137Z,72.88
2024-02-05T13:20:44.907Z,72.78
2024-02-05T13:23:34.245Z,73.04
2024-02-05T13:26:23.567Z,73.08
2024-02-05T13:29:14.340Z,73.17
2024-02-05T13:32:03.816Z,73.99
2024-02-05T13:34:53.258Z,73.56
2024-02-05T13:37:42.747Z,73.64
2024-02-05T13:40:33.233Z,74.22
2024-02-05T13:43:22.573Z,74.66
2024-02-05T13:46:13.658Z,75.18
2024-02-05T13:49:03.910Z,75.19
2024-02-05T13:51:53.427Z,75.27
2024-02-05T13:54:42.864Z,74.90
2024-02-05T13:57:32.252Z,75.17
2024-02-05T14:00:22.377Z,75.06
2024-02-05T14:03:13.174Z,74.53
2024-02-05T14:06:02.733Z,75.02
2024-02-05T14:08:52.728Z,74.55
2024-02-05T14:11:41.983Z,75.71
2024-02-05T14:14:37.081Z,74.98
2024-02-05T14:17:26.438Z,73.66
2024-02-05T14:20:17.288Z,74.28
2024-02-05T14:23:06.779Z,74.30
2024-02-05T14:25:56.038Z,74.08
2024-02-05T14:28:45.324Z,74.18
2024-02-05T14:31:34.716Z,74.46
2024-02-05T14:34:25.029Z,74.43
2024-02-05T14:37:15.880Z,74.42
2024-02-05T14:40:06.936Z,74.79
2024-02-05T14:42:56.409Z,74.62
2024-02-05T14:45:46.066Z,74.20
2024-02-05T14:48:35.862Z,74.09
2024-02-05T14:51:25.773Z,73.74
2024-02-05T14:54:16.618Z,73.98
2024-02-05T14:57:06.452Z,73.14
2024-02-05T14:59:56.218Z,72.59
2024-02-05T15:02:45.601Z,71.85
2024-02-05T15:05:35.271Z,71.45
2024-02-05T15:08:24.811Z,71.21
2024-02-05T15:11:15.565Z,70.66
2024-02-05T15:14:04.971Z,70.71
2024-02-05T15:16:54.268Z,71.24
2024-02-05T15:19:45.058Z,70.81
2024-02-05T15:22:35.396Z,71.14
2024-02-05T15:25:25.004Z,71.57
2024-02-05T15:28:15.784Z,71.20
2024-02-05T15:31:05.412Z,71.38
2024-02-05T15:33:54.875Z,71.74
2024-02-05T15:36:44.402Z,72.39
2024-02-05T15:39:33.844Z,72.62
2024-02-05T15:42:23.198Z,72.26
2024-02-05T15:45:18.024Z,72.47
2024-02-05T15:48:08.247Z,72.75
2024-02-05T15:50:58.366Z,73.39
2024-02-05T15:53:47.996Z,73.14
2024-02-05T15:56:42.583Z,73.32
2024-02-05T15:59:32.795Z,73.63
2024-02-05T16:02:23.542Z,73.52
2024-02-05T16:05:13.374Z,73.81
2024-02-05T16:08:02.899Z,74.66
2024-02-05T16:10:52.340Z,74.20
2024-02-05T16:13:41.984Z,74.34
2024-02-05T16:16:31.764Z,74.43
2024-02-05T16:19:22.723Z,74.68
2024-02-05T16:22:12.127Z,74.84
2024-02-05T16:25:01.468Z,75.48
2024-02-05T16:27:51.023Z,75.31
2024-02-05T16:30:40.456Z,75.53
2024-02-05T16:33:29.936Z,75.67
2024-02-05T16:36:20.758Z,75.96
2024-02-05T16:39:11.040Z,76.77
2024-02-05T16:42:00.430Z,77.09
2024-02-05T16:44:49.760Z,76.95
2024-02-05T16:47:39.426Z,77.50
2024-02-05T16:50:28.933Z,77.77
2024-02-05T16:53:19.887Z,77.80
2024-02-05T16:56:11.141Z,78.45
2024-02-05T16:59:00.568Z,78.57
2024-02-05T17:01:50.313Z,78.60
2024-02-05T17:04:39.896Z,79.42
2024-02-05T17:07:29.291Z,78.86
2024-02-05T17:10:20.442Z,78.83
2024-02-05T17:13:09.916Z,77.70
2024-02-05T17:15:59.490Z,77.95
2024-02-05T17:18:49.168Z,78.29
2024-02-05T17:21:43.606Z,78.69
2024-02-05T17:24:36.381Z,78.10
2024-02-05T17:27:28.149Z,78.91
2024-02-05T17:30:17.671Z,79.15
2024-02-05T17:33:07.307Z,79.36
2024-02-05T17:35:56.832Z,80.21
2024-02-05T17:38:46.122Z,80.08
2024-02-05T17:41:35.516Z,79.51
2024-02-05T17:44:26.191Z,79.83
2024-02-05T17:47:15.825Z,80.22
2024-02-05T17:50:06.071Z,80.34
2024-02-05T17:52:57.334Z,80.45
2024-02-05T17:55:46.810Z,79.78
2024-02-05T17:58:36.400Z,79.76
2024-02-05T18:01:27.239Z,79.67
2024-02-05T18:04:16.826Z,79.86
2024-02-05T18:07:06.924Z,79.63
2024-02-05T18:09:56.402Z,79.28
2024-02-05T18:12:45.943Z,79.58
2024-02-05T18:15:35.450Z,79.43
2024-02-05T18:18:26.714Z,79.20
2024-02-05T18:21:16.986Z,79.51
2024-02-05T18:24:08.286Z,79.52
2024-02-05T18:26:59.808Z,79.92
2024-02-05T18:29:49.286Z,80.92
2024-02-05T18:32:38.600Z,80.36
2024-02-05T18:35:29.590Z,80.21
2024-02-05T18:38:19.095Z,80.37
2024-02-05T18:41:10.277Z,80.69
2024-02-05T18:43:59.692Z,80.94
2024-02-05T18:46:49.070Z,81.45
2024-02-05T18:49:38.617Z,81.25
2024-02-05T18:52:29.493Z,81.64
2024-02-05T18:55:18.963Z,82.27
2024-02-05T18:58:08.444Z,81.73
2024-02-05T19:00:58.330Z,81.53
2024-02-05T19:03:47.867Z,82.10
2024-02-05T19:06:37.324Z,81.66
2024-02-05T19:09:28.695Z,82.42
2024-02-05T19:12:18.145Z,82.47
2024-02-05T19:15:08.217Z,82.34
2024-02-05T19:17:57.679Z,82.63
2024-02-05T19:20:47.102Z,83.33
2024-02-05T19:23:36.528Z,82.87
2024-02-05T19:26:27.331Z,83.16
2024-02-05T19:29:20.747Z,83.30
2024-02-05T19:32:10.667Z,83.51
2024-02-05T19:35:00.933Z,83.52
2024-02-05T19:37:51.012Z,82.81
2024-02-05T19:40:40.608Z,82.14
2024-02-05T19:43:31.543Z,82.05
2024-02-05T19:46:21.052Z,83.40
2024-02-05T19:49:10.636Z,83.15
2024-02-05T19:52:00.094Z,82.51
2024-02-05T19:54:49.554Z,82.70
2024-02-05T19:57:40.908Z,82.96
2024-02-05T20:00:31.817Z,82.90
2024-02-05T20:03:21.472Z,84.46
2024-02-05T20:06:11.010Z,84.82
2024-02-05T20:09:01.461Z,85.11
2024-02-05T20:11:50.763Z,85.23
2024-02-05T20:14:40.136Z,84.20
2024-02-05T20:17:30.896Z,85.26
2024-02-05T20:20:20.862Z,84.88
2024-02-05T20:23:10.469Z,84.77
2024-02-05T20:26:00.046Z,85.73
2024-02-05T20:28:49.395Z,86.40
2024-02-05T20:31:39.339Z,86.10
2024-02-05T20:34:31.291Z,86.50
2024-02-05T20:37:21.075Z,86.08
2024-02-05T20:40:11.328Z,86.27
2024-02-05T20:43:01.038Z,86.15
2024-02-05T20:45:51.040Z,86.50
2024-02-05T20:48:40.572Z,87.86
2024-02-05T20:51:31.549Z,87.54
2024-02-05T20:54:20.796Z,87.31
2024-02-05T20:57:10.130Z,87.54
2024-02-05T20:59:59.426Z,88.17
2024-02-05T21:02:48.777Z,90.81
2024-02-05T21:05:38.068Z,90.44
2024-02-05T21:08:29.056Z,91.53
2024-02-05T21:11:18.562Z,92.67
2024-02-05T21:14:07.997Z,92.75
2024-02-05T21:16:59.722Z,93.62
2024-02-05T21:19:49.165Z,93.85
2024-02-05T21:22:38.662Z,94.35
2024-02-05T21:25:29.502Z,93.48
2024-02-05T21:28:19.018Z,93.27
2024-02-05T21:31:08.443Z,93.84
2024-02-05T21:33:57.838Z,93.47
2024-02-05T21:36:48.566Z,94.33
2024-02-05T21:39:38.081Z,94.45
2024-02-05T21:42:28.906Z,94.01
2024-02-05T21:45:18.300Z,93.88
2024-02-05T21:48:11.549Z,93.98
2024-02-05T21:51:01.263Z,94.28
2024-02-05T21:53:50.681Z,95.63
2024-02-05T21:56:40.239Z,95.76
2024-02-05T21:59:31.007Z,95.40
2024-02-05T22:02:20.484Z,95.57
2024-02-05T22:05:10.562Z,95.37
2024-02-05T22:08:00.897Z,94.88
2024-02-05T22:10:50.205Z,94.85
2024-02-05T22:13:39.657Z,94.85
2024-02-05T22:16:30.495Z,94.34
2024-02-05T22:19:19.972Z,94.69
2024-02-05T22:22:10.258Z,95.55
2024-02-05T22:24:59.917Z,95.19
2024-02-05T22:27:49.287Z,94.54
2024-02-05T22:30:38.527Z,93.90
2024-02-05T22:33:35.238Z,93.75
2024-02-05T22:36:27.550Z,93.79
2024-02-05T22:39:16.929Z,93.90
2024-02-05T22:42:06.799Z,93.79
2024-02-05T22:44:56.292Z,93.88
2024-02-05T22:47:45.856Z,93.97
2024-02-05T22:50:36.639Z,93.68
2024-02-05T22:53:26.268Z,93.20
2024-02-05T22:56:15.714Z,92.99
2024-02-05T22:59:05.054Z,93.19
2024-02-05T23:01:54.453Z,92.81
2024-02-05T23:04:43.930Z,93.13
2024-02-05T23:07:35.278Z,92.55
2024-02-05T23:10:25.815Z,93.19
2024-02-05T23:13:15.236Z,93.58
2024-02-05T23:16:05.401Z,93.41
2024-02-05T23:18:54.897Z,93.27
2024-02-05T23:21:44.346Z,93.42
2024-02-05T23:24:35.054Z,93.97
2024-02-05T23:27:24.360Z,93.49
2024-02-05T23:30:14.859Z,94.13
2024-02-05T23:33:04.451Z,94.31
2024-02-05T23:35:54.010Z,94.22
2024-02-05T23:38:43.557Z,94.20
2024-02-05T23:41:36.180Z,94.15
2024-02-05T23:44:25.631Z,95.76
2024-02-05T23:47:15.165Z,96.28
2024-02-05T23:50:04.567Z,96.78
2024-02-05T23:52:54.115Z,96.84
2024-02-05T23:55:43.612Z,96.08
2024-02-05T23:58:35.513Z,96.32
